sensor_id;sensor_type;location;lat;lon;timestamp;pressure;altitude;pressure_sealevel;temperature;humidity
54666;BME280;40566;50.006;36.180;2023-06-14T00:03:13;99520.19;;;16.06;67.86
54666;BME280;40566;50.006;36.180;2023-06-14T00:08:17;99517.59;;;16.06;67.62
54666;BME280;40566;50.006;36.180;2023-06-14T00:13:19;99510.94;;;16.01;67.74
54666;BME280;40566;50.006;36.180;2023-06-14T00:18:21;99496.09;;;16.01;67.85
54666;BME280;40566;50.006;36.180;2023-06-14T00:23:24;99500.06;;;15.93;68.17
54666;BME280;40566;50.006;36.180;2023-06-14T00:28:24;99507.22;;;15.89;68.20
54666;BME280;40566;50.006;36.180;2023-06-14T00:33:25;99514.47;;;15.84;68.07
54666;BME280;40566;50.006;36.180;2023-06-14T00:38:26;99507.47;;;15.84;68.17
54666;BME280;40566;50.006;36.180;2023-06-14T00:43:26;99507.47;;;15.84;68.12
54666;BME280;40566;50.006;36.180;2023-06-14T00:48:28;99492.72;;;15.83;68.34
54666;BME280;40566;50.006;36.180;2023-06-14T00:53:30;99495.44;;;15.82;68.23
54666;BME280;40566;50.006;36.180;2023-06-14T00:58:34;99494.75;;;15.78;68.53
54666;BME280;40566;50.006;36.180;2023-06-14T01:03:35;99491.22;;;15.79;68.49
54666;BME280;40566;50.006;36.180;2023-06-14T01:08:50;99482.47;;;15.80;68.54
54666;BME280;40566;50.006;36.180;2023-06-14T01:13:53;99488.44;;;15.82;68.24
54666;BME280;40566;50.006;36.180;2023-06-14T01:18:55;99480.78;;;15.79;68.33
54666;BME280;40566;50.006;36.180;2023-06-14T01:23:56;99497.53;;;15.75;68.81
54666;BME280;40566;50.006;36.180;2023-06-14T01:28:57;99514.19;;;15.73;68.98
54666;BME280;40566;50.006;36.180;2023-06-14T01:33:58;99514.19;;;15.73;68.86
54666;BME280;40566;50.006;36.180;2023-06-14T01:38:59;99509.56;;;15.78;68.66
54666;BME280;40566;50.006;36.180;2023-06-14T01:44:01;99523.59;;;15.75;68.67
54666;BME280;40566;50.006;36.180;2023-06-14T01:49:02;99517.84;;;15.69;68.74
54666;BME280;40566;50.006;36.180;2023-06-14T01:54:03;99517.91;;;15.67;68.87
54666;BME280;40566;50.006;36.180;2023-06-14T01:59:03;99514.47;;;15.66;68.82
54666;BME280;40566;50.006;36.180;2023-06-14T02:04:04;99524.06;;;15.66;68.73
54666;BME280;40566;50.006;36.180;2023-06-14T02:09:05;99513.53;;;15.67;68.51
54666;BME280;40566;50.006;36.180;2023-06-14T02:14:06;99513.47;;;15.69;68.72
54666;BME280;40566;50.006;36.180;2023-06-14T02:19:07;99519.50;;;15.70;68.68
54666;BME280;40566;50.006;36.180;2023-06-14T02:24:08;99518.75;;;15.67;68.45
54666;BME280;40566;50.006;36.180;2023-06-14T02:29:08;99515.25;;;15.69;68.49
54666;BME280;40566;50.006;36.180;2023-06-14T02:34:11;99520.22;;;15.73;68.71
54666;BME280;40566;50.006;36.180;2023-06-14T02:39:11;99510.63;;;15.74;68.75
54666;BME280;40566;50.006;36.180;2023-06-14T02:44:14;99503.34;;;15.80;68.37
54666;BME280;40566;50.006;36.180;2023-06-14T02:49:15;99518.22;;;15.78;68.76
54666;BME280;40566;50.006;36.180;2023-06-14T02:54:15;99510.47;;;15.77;68.94
54666;BME280;40566;50.006;36.180;2023-06-14T02:59:16;99511.41;;;15.76;68.62
54666;BME280;40566;50.006;36.180;2023-06-14T03:04:17;99512.84;;;15.81;68.92
54666;BME280;40566;50.006;36.180;2023-06-14T03:09:17;99514.47;;;15.84;68.73
54666;BME280;40566;50.006;36.180;2023-06-14T03:14:19;99517.81;;;15.86;68.68
54666;BME280;40566;50.006;36.180;2023-06-14T03:19:21;99521.69;;;15.79;68.93
54666;BME280;40566;50.006;36.180;2023-06-14T03:24:23;99507.94;;;15.75;68.95
54666;BME280;40566;50.006;36.180;2023-06-14T03:29:24;99505.19;;;15.78;69.11
54666;BME280;40566;50.006;36.180;2023-06-14T03:34:25;99514.53;;;15.82;69.13
54666;BME280;40566;50.006;36.180;2023-06-14T03:39:26;99511.66;;;15.87;69.03
54666;BME280;40566;50.006;36.180;2023-06-14T03:44:26;99503.78;;;15.89;68.90
54666;BME280;40566;50.006;36.180;2023-06-14T03:49:27;99507.13;;;15.91;68.93
54666;BME280;40566;50.006;36.180;2023-06-14T03:54:28;99504.53;;;15.91;68.79
54666;BME280;40566;50.006;36.180;2023-06-14T03:59:29;99509.13;;;15.85;68.90
54666;BME280;40566;50.006;36.180;2023-06-14T04:04:29;99503.28;;;15.82;68.91
54666;BME280;40566;50.006;36.180;2023-06-14T04:09:30;99495.34;;;15.83;69.50
54666;BME280;40566;50.006;36.180;2023-06-14T04:14:30;99494.34;;;15.86;69.29
54666;BME280;40566;50.006;36.180;2023-06-14T04:19:34;99508.84;;;15.92;68.86
54666;BME280;40566;50.006;36.180;2023-06-14T04:24:35;99498.22;;;15.95;69.11
54666;BME280;40566;50.006;36.180;2023-06-14T04:29:35;99502.28;;;16.00;68.93
54666;BME280;40566;50.006;36.180;2023-06-14T04:34:36;99496.09;;;16.01;68.98
54666;BME280;40566;50.006;36.180;2023-06-14T04:39:37;99492.66;;;16.01;69.09
54666;BME280;40566;50.006;36.180;2023-06-14T04:44:38;99490.75;;;16.04;68.68
54666;BME280;40566;50.006;36.180;2023-06-14T04:49:40;99488.38;;;16.00;69.10
54666;BME280;40566;50.006;36.180;2023-06-14T04:54:41;99487.28;;;16.04;68.78
54666;BME280;40566;50.006;36.180;2023-06-14T04:59:45;99485.09;;;16.12;68.87
54666;BME280;40566;50.006;36.180;2023-06-14T05:04:45;99486.19;;;16.24;68.58
54666;BME280;40566;50.006;36.180;2023-06-14T05:09:49;99494.16;;;16.37;68.17
54666;BME280;40566;50.006;36.180;2023-06-14T05:14:49;99493.94;;;16.41;68.56
54666;BME280;40566;50.006;36.180;2023-06-14T05:19:50;99500.59;;;16.47;68.38
54666;BME280;40566;50.006;36.180;2023-06-14T05:24:51;99500.41;;;16.50;68.33
54666;BME280;40566;50.006;36.180;2023-06-14T05:29:52;99496.59;;;16.56;68.23
54666;BME280;40566;50.006;36.180;2023-06-14T05:34:56;99500.63;;;16.61;67.99
54666;BME280;40566;50.006;36.180;2023-06-14T05:39:56;99502.97;;;16.66;67.67
54666;BME280;40566;50.006;36.180;2023-06-14T05:44:57;99494.16;;;16.69;67.97
54666;BME280;40566;50.006;36.180;2023-06-14T05:49:57;99498.06;;;16.76;67.82
54666;BME280;40566;50.006;36.180;2023-06-14T05:55:00;99485.28;;;16.87;67.22
54666;BME280;40566;50.006;36.180;2023-06-14T06:00:01;99502.09;;;16.97;67.31
54666;BME280;40566;50.006;36.180;2023-06-14T06:05:06;99504.53;;;17.00;67.19
54666;BME280;40566;50.006;36.180;2023-06-14T06:10:07;99496.78;;;16.99;67.36
54666;BME280;40566;50.006;36.180;2023-06-14T06:15:11;99508.38;;;17.09;67.21
54666;BME280;40566;50.006;36.180;2023-06-14T06:20:12;99513.53;;;17.25;66.60
54666;BME280;40566;50.006;36.180;2023-06-14T06:25:13;99504.78;;;17.40;66.32
54666;BME280;40566;50.006;36.180;2023-06-14T06:30:15;99504.06;;;17.53;66.29
54666;BME280;40566;50.006;36.180;2023-06-14T06:35:16;99508.44;;;17.52;66.09
54666;BME280;40566;50.006;36.180;2023-06-14T06:40:16;99513.00;;;17.49;66.34
54666;BME280;40566;50.006;36.180;2023-06-14T06:45:17;99516.00;;;17.42;66.54
54666;BME280;40566;50.006;36.180;2023-06-14T06:50:18;99517.03;;;17.40;66.33
54666;BME280;40566;50.006;36.180;2023-06-14T06:55:20;99513.38;;;17.42;66.56
54666;BME280;40566;50.006;36.180;2023-06-14T07:00:21;99517.22;;;17.51;66.37
54666;BME280;40566;50.006;36.180;2023-06-14T07:05:21;99516.38;;;17.51;66.03
54666;BME280;40566;50.006;36.180;2023-06-14T07:10:22;99530.28;;;17.51;66.00
54666;BME280;40566;50.006;36.180;2023-06-14T07:15:24;99536.09;;;17.42;66.31
54666;BME280;40566;50.006;36.180;2023-06-14T07:20:25;99523.63;;;17.31;66.17
54666;BME280;40566;50.006;36.180;2023-06-14T07:25:26;99530.94;;;17.26;66.53
54666;BME280;40566;50.006;36.180;2023-06-14T07:30:26;99519.59;;;17.25;66.18
54666;BME280;40566;50.006;36.180;2023-06-14T07:35:27;99523.91;;;17.27;66.08
54666;BME280;40566;50.006;36.180;2023-06-14T07:40:28;99520.25;;;17.15;66.73
54666;BME280;40566;50.006;36.180;2023-06-14T07:45:28;99511.66;;;17.13;66.80
54666;BME280;40566;50.006;36.180;2023-06-14T07:50:29;99510.94;;;17.25;66.23
54666;BME280;40566;50.006;36.180;2023-06-14T07:55:30;99520.84;;;17.34;65.81
54666;BME280;40566;50.006;36.180;2023-06-14T08:00:33;99519.38;;;17.44;65.67
54666;BME280;40566;50.006;36.180;2023-06-14T08:05:33;99516.38;;;17.51;65.44
54666;BME280;40566;50.006;36.180;2023-06-14T08:10:35;99508.16;;;17.42;65.79
54666;BME280;40566;50.006;36.180;2023-06-14T08:15:35;99514.03;;;17.46;65.71
54666;BME280;40566;50.006;36.180;2023-06-14T08:20:36;99516.22;;;17.54;65.73
54666;BME280;40566;50.006;36.180;2023-06-14T08:25:37;99518.63;;;17.57;65.42
54666;BME280;40566;50.006;36.180;2023-06-14T08:30:38;99508.34;;;17.54;65.94
54666;BME280;40566;50.006;36.180;2023-06-14T08:35:39;99506.28;;;17.44;66.76
54666;BME280;40566;50.006;36.180;2023-06-14T08:40:41;99493.38;;;17.41;66.96
54666;BME280;40566;50.006;36.180;2023-06-14T08:45:46;99486.66;;;17.37;67.33
54666;BME280;40566;50.006;36.180;2023-06-14T08:50:48;99495.63;;;17.33;67.75
54666;BME280;40566;50.006;36.180;2023-06-14T08:55:49;99495.44;;;17.36;68.01
54666;BME280;40566;50.006;36.180;2023-06-14T09:00:50;99508.16;;;17.28;68.21
54666;BME280;40566;50.006;36.180;2023-06-14T09:05:52;99507.47;;;17.24;68.05
54666;BME280;40566;50.006;36.180;2023-06-14T09:10:54;99499.72;;;17.23;68.39
54666;BME280;40566;50.006;36.180;2023-06-14T09:15:55;99505.16;;;17.34;68.25
54666;BME280;40566;50.006;36.180;2023-06-14T09:20:56;99512.56;;;17.42;68.05
54666;BME280;40566;50.006;36.180;2023-06-14T09:25:56;99509.06;;;17.41;68.17
54666;BME280;40566;50.006;36.180;2023-06-14T09:30:57;99514.13;;;17.44;68.12
54666;BME280;40566;50.006;36.180;2023-06-14T09:35:58;99509.84;;;17.58;67.75
54666;BME280;40566;50.006;36.180;2023-06-14T09:41:03;99500.69;;;17.65;67.38
54666;BME280;40566;50.006;36.180;2023-06-14T09:46:04;99503.88;;;17.70;67.39
54666;BME280;40566;50.006;36.180;2023-06-14T09:51:06;99516.28;;;17.81;67.35
54666;BME280;40566;50.006;36.180;2023-06-14T09:56:07;99518.91;;;17.81;67.06
54666;BME280;40566;50.006;36.180;2023-06-14T10:01:10;99522.63;;;17.77;67.17
54666;BME280;40566;50.006;36.180;2023-06-14T10:06:14;99509.75;;;17.74;67.37
54666;BME280;40566;50.006;36.180;2023-06-14T10:11:18;99516.66;;;17.75;67.06
54666;BME280;40566;50.006;36.180;2023-06-14T10:16:35;99511.63;;;17.72;67.12
54666;BME280;40566;50.006;36.180;2023-06-14T10:21:49;99506.19;;;17.75;67.18
54666;BME280;40566;50.006;36.180;2023-06-14T10:26:55;99512.91;;;17.79;67.39
54666;BME280;40566;50.006;36.180;2023-06-14T10:31:59;99507.41;;;17.69;67.37
54666;BME280;40566;50.006;36.180;2023-06-14T10:37:04;99506.66;;;17.67;67.50
54666;BME280;40566;50.006;36.180;2023-06-14T10:42:05;99514.13;;;17.59;67.92
54666;BME280;40566;50.006;36.180;2023-06-14T10:52:33;99493.22;;;17.44;68.16
54666;BME280;40566;50.006;36.180;2023-06-14T10:57:42;99489.03;;;17.42;68.61
54666;BME280;40566;50.006;36.180;2023-06-14T11:02:52;99505.81;;;17.38;68.66
54666;BME280;40566;50.006;36.180;2023-06-14T11:13:24;99502.72;;;17.31;68.94
54666;BME280;40566;50.006;36.180;2023-06-14T11:18:28;99506.28;;;17.30;69.33
54666;BME280;40566;50.006;36.180;2023-06-14T11:23:29;99519.53;;;17.27;69.49
54666;BME280;40566;50.006;36.180;2023-06-14T11:28:40;99505.78;;;17.23;69.74
54666;BME280;40566;50.006;36.180;2023-06-14T11:33:41;99518.38;;;17.17;70.65
54666;BME280;40566;50.006;36.180;2023-06-14T11:38:42;99524.06;;;17.09;71.32
54666;BME280;40566;50.006;36.180;2023-06-14T11:43:45;99526.28;;;17.01;72.11
54666;BME280;40566;50.006;36.180;2023-06-14T11:48:47;99512.81;;;16.93;72.53
54666;BME280;40566;50.006;36.180;2023-06-14T11:53:48;99514.00;;;16.87;73.48
54666;BME280;40566;50.006;36.180;2023-06-14T11:58:49;99512.63;;;16.80;73.77
54666;BME280;40566;50.006;36.180;2023-06-14T12:03:52;99510.81;;;16.82;74.29
54666;BME280;40566;50.006;36.180;2023-06-14T12:08:57;99501.03;;;16.85;74.17
54666;BME280;40566;50.006;36.180;2023-06-14T12:13:58;99512.63;;;16.80;74.98
54666;BME280;40566;50.006;36.180;2023-06-14T12:19:07;99500.69;;;16.76;75.20
54666;BME280;40566;50.006;36.180;2023-06-14T12:24:09;99498.75;;;16.79;75.25
54666;BME280;40566;50.006;36.180;2023-06-14T12:29:12;99502.38;;;16.77;75.22
54666;BME280;40566;50.006;36.180;2023-06-14T12:34:13;99506.75;;;16.76;75.56
54666;BME280;40566;50.006;36.180;2023-06-14T12:39:13;99505.91;;;16.76;75.76
54666;BME280;40566;50.006;36.180;2023-06-14T12:44:15;99499.19;;;16.72;75.90
54666;BME280;40566;50.006;36.180;2023-06-14T12:49:15;99494.97;;;16.69;76.56
54666;BME280;40566;50.006;36.180;2023-06-14T12:54:16;99496.16;;;16.63;76.32
54666;BME280;40566;50.006;36.180;2023-06-14T12:59:18;99489.44;;;16.59;76.92
54666;BME280;40566;50.006;36.180;2023-06-14T13:04:18;99488.50;;;16.60;76.72
54666;BME280;40566;50.006;36.180;2023-06-14T13:09:19;99486.41;;;16.67;77.06
54666;BME280;40566;50.006;36.180;2023-06-14T13:14:19;99480.47;;;16.79;77.01
54666;BME280;40566;50.006;36.180;2023-06-14T13:19:20;99471.28;;;16.88;76.87
54666;BME280;40566;50.006;36.180;2023-06-14T13:24:21;99472.69;;;16.94;77.09
54666;BME280;40566;50.006;36.180;2023-06-14T13:29:23;99462.00;;;17.13;76.98
54666;BME280;40566;50.006;36.180;2023-06-14T13:34:24;99460.06;;;17.31;76.25
54666;BME280;40566;50.006;36.180;2023-06-14T13:39:27;99452.22;;;17.45;76.21
54666;BME280;40566;50.006;36.180;2023-06-14T13:44:28;99460.88;;;17.45;76.13
54666;BME280;40566;50.006;36.180;2023-06-14T13:49:29;99445.50;;;17.41;76.72
54666;BME280;40566;50.006;36.180;2023-06-14T13:54:29;99457.16;;;17.35;77.22
54666;BME280;40566;50.006;36.180;2023-06-14T14:05:46;99447.72;;;17.33;77.24
54666;BME280;40566;50.006;36.180;2023-06-14T14:10:46;99449.88;;;17.40;77.64
54666;BME280;40566;50.006;36.180;2023-06-14T14:15:48;99446.31;;;17.41;77.70
54666;BME280;40566;50.006;36.180;2023-06-14T14:20:49;99450.63;;;17.42;77.67
54666;BME280;40566;50.006;36.180;2023-06-14T14:25:50;99448.31;;;17.38;78.05
54666;BME280;40566;50.006;36.180;2023-06-14T14:30:51;99444.19;;;17.34;78.12
54666;BME280;40566;50.006;36.180;2023-06-14T14:35:51;99445.03;;;17.34;78.01
54666;BME280;40566;50.006;36.180;2023-06-14T14:40:52;99443.34;;;17.33;78.40
54666;BME280;40566;50.006;36.180;2023-06-14T14:45:53;99445.03;;;17.34;78.50
54666;BME280;40566;50.006;36.180;2023-06-14T14:50:53;99440.63;;;17.35;78.78
54666;BME280;40566;50.006;36.180;2023-06-14T14:55:54;99448.41;;;17.36;78.60
54666;BME280;40566;50.006;36.180;2023-06-14T15:00:54;99446.69;;;17.35;78.94
54666;BME280;40566;50.006;36.180;2023-06-14T15:05:55;99449.50;;;17.32;78.59
54666;BME280;40566;50.006;36.180;2023-06-14T15:10:56;99446.97;;;17.31;79.02
54666;BME280;40566;50.006;36.180;2023-06-14T15:15:57;99449.78;;;17.28;79.23
54666;BME280;40566;50.006;36.180;2023-06-14T15:20:57;99446.31;;;17.27;79.12
54666;BME280;40566;50.006;36.180;2023-06-14T15:25:59;99448.78;;;17.30;78.94
54666;BME280;40566;50.006;36.180;2023-06-14T15:31:00;99445.94;;;17.33;78.98
54666;BME280;40566;50.006;36.180;2023-06-14T15:36:01;99441.47;;;17.35;79.09
54666;BME280;40566;50.006;36.180;2023-06-14T15:41:01;99447.44;;;17.37;78.96
54666;BME280;40566;50.006;36.180;2023-06-14T15:46:03;99442.41;;;17.34;79.19
54666;BME280;40566;50.006;36.180;2023-06-14T15:51:03;99438.97;;;17.34;79.27
54666;BME280;40566;50.006;36.180;2023-06-14T15:56:04;99442.41;;;17.34;79.17
54666;BME280;40566;50.006;36.180;2023-06-14T16:01:08;99445.94;;;17.33;78.99
54666;BME280;40566;50.006;36.180;2023-06-14T16:06:08;99454.09;;;17.29;79.14
54666;BME280;40566;50.006;36.180;2023-06-14T16:11:09;99461.84;;;17.30;79.16
54666;BME280;40566;50.006;36.180;2023-06-14T16:16:09;99463.97;;;17.23;79.25
54666;BME280;40566;50.006;36.180;2023-06-14T16:21:10;99454.53;;;17.21;79.58
54666;BME280;40566;50.006;36.180;2023-06-14T16:26:11;99461.63;;;17.19;79.57
54666;BME280;40566;50.006;36.180;2023-06-14T16:31:15;99469.47;;;17.19;79.84
54666;BME280;40566;50.006;36.180;2023-06-14T16:36:17;99465.91;;;17.20;79.71
54666;BME280;40566;50.006;36.180;2023-06-14T16:41:18;99459.84;;;17.19;79.57
54666;BME280;40566;50.006;36.180;2023-06-14T16:46:31;99444.25;;;17.18;79.69
54666;BME280;40566;50.006;36.180;2023-06-14T16:51:32;99454.06;;;17.14;79.85
54666;BME280;40566;50.006;36.180;2023-06-14T16:56:32;99454.06;;;17.14;79.71
54666;BME280;40566;50.006;36.180;2023-06-14T17:01:33;99442.13;;;17.10;79.95
54666;BME280;40566;50.006;36.180;2023-06-14T17:06:34;99438.75;;;17.08;80.14
54666;BME280;40566;50.006;36.180;2023-06-14T17:11:35;99450.22;;;17.05;80.31
54666;BME280;40566;50.006;36.180;2023-06-14T17:16:36;99446.84;;;17.03;80.19
54666;BME280;40566;50.006;36.180;2023-06-14T17:21:36;99439.22;;;17.00;80.59
54666;BME280;40566;50.006;36.180;2023-06-14T17:26:37;99449.84;;;16.97;80.52
54666;BME280;40566;50.006;36.180;2023-06-14T17:31:37;99437.81;;;16.95;80.64
54666;BME280;40566;50.006;36.180;2023-06-14T17:36:38;99443.94;;;16.94;80.71
54666;BME280;40566;50.006;36.180;2023-06-14T17:41:38;99445.72;;;16.93;80.91
54666;BME280;40566;50.006;36.180;2023-06-14T17:46:39;99450.19;;;16.91;81.01
54666;BME280;40566;50.006;36.180;2023-06-14T17:51:40;99447.59;;;16.91;81.24
54666;BME280;40566;50.006;36.180;2023-06-14T17:56:40;99447.59;;;16.91;81.06
54666;BME280;40566;50.006;36.180;2023-06-14T18:01:41;99458.03;;;16.91;81.05
54666;BME280;40566;50.006;36.180;2023-06-14T18:06:42;99439.00;;;16.89;81.17
54666;BME280;40566;50.006;36.180;2023-06-14T18:11:42;99441.78;;;16.86;81.14
54666;BME280;40566;50.006;36.180;2023-06-14T18:16:44;99451.31;;;16.87;81.31
54666;BME280;40566;50.006;36.180;2023-06-14T18:21:46;99437.31;;;16.88;81.46
54666;BME280;40566;50.006;36.180;2023-06-14T18:26:47;99445.25;;;16.87;81.38
54666;BME280;40566;50.006;36.180;2023-06-14T18:31:48;99447.88;;;16.87;81.41
54666;BME280;40566;50.006;36.180;2023-06-14T18:36:49;99449.53;;;16.88;81.65
54666;BME280;40566;50.006;36.180;2023-06-14T18:41:52;99441.78;;;16.86;81.38
54666;BME280;40566;50.006;36.180;2023-06-14T18:46:53;99449.72;;;16.84;81.69
54666;BME280;40566;50.006;36.180;2023-06-14T18:51:54;99451.59;;;16.82;81.99
54666;BME280;40566;50.006;36.180;2023-06-14T18:56:54;99441.19;;;16.81;81.87
54666;BME280;40566;50.006;36.180;2023-06-14T19:01:55;99442.91;;;16.82;81.87
54666;BME280;40566;50.006;36.180;2023-06-14T19:06:55;99439.50;;;16.80;82.12
54666;BME280;40566;50.006;36.180;2023-06-14T19:11:56;99442.91;;;16.82;81.84
54666;BME280;40566;50.006;36.180;2023-06-14T19:16:57;99439.38;;;16.83;81.89
54666;BME280;40566;50.006;36.180;2023-06-14T19:21:57;99443.75;;;16.82;81.94
54666;BME280;40566;50.006;36.180;2023-06-14T19:26:58;99438.00;;;16.76;82.13
54666;BME280;40566;50.006;36.180;2023-06-14T19:31:59;99435.59;;;16.73;82.11
54666;BME280;40566;50.006;36.180;2023-06-14T19:36:59;99439.38;;;16.67;82.53
54666;BME280;40566;50.006;36.180;2023-06-14T19:42:02;99431.63;;;16.65;82.50
54666;BME280;40566;50.006;36.180;2023-06-14T19:47:04;99428.94;;;16.67;82.64
54666;BME280;40566;50.006;36.180;2023-06-14T19:52:05;99425.31;;;16.70;82.43
54666;BME280;40566;50.006;36.180;2023-06-14T19:57:06;99431.28;;;16.72;82.63
54666;BME280;40566;50.006;36.180;2023-06-14T20:02:07;99425.13;;;16.73;82.25
54666;BME280;40566;50.006;36.180;2023-06-14T20:07:09;99407.75;;;16.72;82.39
54666;BME280;40566;50.006;36.180;2023-06-14T20:12:09;99414.19;;;16.66;82.39
54666;BME280;40566;50.006;36.180;2023-06-14T20:17:10;99412.69;;;16.62;82.77
54666;BME280;40566;50.006;36.180;2023-06-14T20:22:10;99421.34;;;16.62;82.76
54666;BME280;40566;50.006;36.180;2023-06-14T20:27:11;99417.91;;;16.62;82.52
54666;BME280;40566;50.006;36.180;2023-06-14T20:32:12;99412.88;;;16.59;82.84
54666;BME280;40566;50.006;36.180;2023-06-14T20:37:14;99406.72;;;16.60;82.74
54666;BME280;40566;50.006;36.180;2023-06-14T20:42:15;99408.56;;;16.58;82.78
54666;BME280;40566;50.006;36.180;2023-06-14T20:47:16;99415.75;;;16.54;82.61
54666;BME280;40566;50.006;36.180;2023-06-14T20:52:17;99411.63;;;16.50;82.70
54666;BME280;40566;50.006;36.180;2023-06-14T20:57:18;99422.06;;;16.50;82.80
54666;BME280;40566;50.006;36.180;2023-06-14T21:02:22;99423.00;;;16.49;82.89
54666;BME280;40566;50.006;36.180;2023-06-14T21:07:23;99428.22;;;16.49;82.92
54666;BME280;40566;50.006;36.180;2023-06-14T21:12:25;99413.41;;;16.50;82.58
54666;BME280;40566;50.006;36.180;2023-06-14T21:17:26;99420.28;;;16.51;82.60
54666;BME280;40566;50.006;36.180;2023-06-14T21:22:28;99424.69;;;16.50;82.46
54666;BME280;40566;50.006;36.180;2023-06-14T21:27:28;99422.91;;;16.51;82.46
54666;BME280;40566;50.006;36.180;2023-06-14T21:32:29;99431.59;;;16.51;82.66
54666;BME280;40566;50.006;36.180;2023-06-14T21:37:29;99431.84;;;16.46;82.46
54666;BME280;40566;50.006;36.180;2023-06-14T21:42:30;99421.59;;;16.43;82.78
54666;BME280;40566;50.006;36.180;2023-06-14T21:47:31;99419.22;;;16.39;82.64
54666;BME280;40566;50.006;36.180;2023-06-14T21:52:31;99408.97;;;16.36;82.63
54666;BME280;40566;50.006;36.180;2023-06-14T21:57:32;99410.84;;;16.34;82.42
54666;BME280;40566;50.006;36.180;2023-06-14T22:02:32;99409.25;;;16.31;82.58
54666;BME280;40566;50.006;36.180;2023-06-14T22:07:33;99397.38;;;16.25;82.53
54666;BME280;40566;50.006;36.180;2023-06-14T22:12:34;99400.00;;;16.25;82.44
54666;BME280;40566;50.006;36.180;2023-06-14T22:17:35;99397.53;;;16.22;82.14
54666;BME280;40566;50.006;36.180;2023-06-14T22:22:36;99383.75;;;16.20;82.12
54666;BME280;40566;50.006;36.180;2023-06-14T22:27:40;99391.84;;;16.16;82.14
54666;BME280;40566;50.006;36.180;2023-06-14T22:33:17;99376.34;;;16.13;82.32
54666;BME280;40566;50.006;36.180;2023-06-14T22:38:25;99382.59;;;16.10;82.57
54666;BME280;40566;50.006;36.180;2023-06-14T22:43:26;99387.63;;;16.13;82.17
54666;BME280;40566;50.006;36.180;2023-06-14T22:48:26;99396.22;;;16.15;82.37
54666;BME280;40566;50.006;36.180;2023-06-14T22:53:55;99377.84;;;16.17;82.05
54666;BME280;40566;50.006;36.180;2023-06-14T22:58:57;99374.31;;;16.18;82.16
54666;BME280;40566;50.006;36.180;2023-06-14T23:04:02;99372.63;;;16.17;82.16
54666;BME280;40566;50.006;36.180;2023-06-14T23:09:03;99366.66;;;16.15;82.41
54666;BME280;40566;50.006;36.180;2023-06-14T23:14:04;99366.66;;;16.15;82.47
54666;BME280;40566;50.006;36.180;2023-06-14T23:19:05;99367.53;;;16.15;82.33
54666;BME280;40566;50.006;36.180;2023-06-14T23:24:06;99369.09;;;16.18;82.76
54666;BME280;40566;50.006;36.180;2023-06-14T23:29:08;99362.13;;;16.18;82.73
54666;BME280;40566;50.006;36.180;2023-06-14T23:34:08;99361.28;;;16.18;82.56
54666;BME280;40566;50.006;36.180;2023-06-14T23:39:09;99350.00;;;16.17;82.91
54666;BME280;40566;50.006;36.180;2023-06-14T23:44:10;99350.09;;;16.16;82.80
54666;BME280;40566;50.006;36.180;2023-06-14T23:49:10;99349.25;;;16.15;82.49
54666;BME280;40566;50.006;36.180;2023-06-14T23:54:11;99361.34;;;16.16;82.70
54666;BME280;40566;50.006;36.180;2023-06-14T23:59:12;99352.78;;;16.14;82.88
